createdAt,value
2022-12-03T00:02:00.516Z,96.38
2022-12-03T00:04:27.209Z,96.36
2022-12-03T00:06:53.897Z,96.54
2022-12-03T00:09:20.509Z,96.92
2022-12-03T00:11:47.104Z,96.00
2022-12-03T00:14:13.680Z,96.27
2022-12-03T00:16:40.368Z,96.49
2022-12-03T00:19:07.725Z,97.34
2022-12-03T00:21:34.674Z,96.93
2022-12-03T00:24:01.327Z,97.23
2022-12-03T00:26:27.980Z,97.05
2022-12-03T00:28:55.261Z,97.14
2022-12-03T00:31:23.560Z,97.23
2022-12-03T00:33:53.430Z,97.26
2022-12-03T00:36:20.479Z,97.80
2022-12-03T00:38:47.205Z,97.95
2022-12-03T00:41:13.800Z,97.06
2022-12-03T00:43:40.371Z,96.69
2022-12-03T00:46:07.055Z,96.75
2022-12-03T00:48:33.756Z,97.52
2022-12-03T00:51:00.357Z,97.31
2022-12-03T00:53:27.433Z,97.66
2022-12-03T00:55:54.102Z,97.83
2022-12-03T00:58:20.707Z,98.23
2022-12-03T01:00:47.562Z,97.93
2022-12-03T01:03:14.138Z,98.05
2022-12-03T01:05:40.706Z,97.78
2022-12-03T01:08:07.323Z,98.13
2022-12-03T01:10:33.989Z,97.54
2022-12-03T01:13:00.590Z,97.93
2022-12-03T01:15:27.420Z,97.23
2022-12-03T01:17:54.346Z,97.66
2022-12-03T01:20:21.096Z,98.35
2022-12-03T01:22:47.753Z,97.53
2022-12-03T01:25:14.616Z,98.48
2022-12-03T01:27:41.216Z,98.57
2022-12-03T01:30:08.806Z,97.99
2022-12-03T01:32:35.491Z,98.03
2022-12-03T01:35:02.100Z,97.93
2022-12-03T01:37:28.881Z,98.12
2022-12-03T01:39:55.541Z,98.11
2022-12-03T01:42:25.555Z,98.37
2022-12-03T01:44:57.982Z,97.83
2022-12-03T01:47:34.679Z,98.43
2022-12-03T01:50:07.562Z,98.00
2022-12-03T01:52:38.003Z,97.96
2022-12-03T01:55:11.606Z,98.38
2022-12-03T01:57:42.227Z,98.63
2022-12-03T02:00:17.543Z,98.43
2022-12-03T02:02:45.239Z,97.80
2022-12-03T02:05:21.101Z,98.30
2022-12-03T02:07:47.771Z,97.65
2022-12-03T02:10:16.308Z,98.57
2022-12-03T02:12:49.084Z,98.80
2022-12-03T02:15:16.022Z,98.93
2022-12-03T02:17:43.315Z,98.60
2022-12-03T02:20:11.643Z,98.84
2022-12-03T02:22:46.962Z,98.65
2022-12-03T02:25:19.541Z,98.50
2022-12-03T02:27:47.805Z,98.99
2022-12-03T02:30:18.454Z,98.96
2022-12-03T02:32:45.357Z,98.66
2022-12-03T02:35:20.617Z,98.43
2022-12-03T02:37:50.613Z,99.27
2022-12-03T02:40:21.674Z,98.88
2022-12-03T02:42:51.025Z,98.67
2022-12-03T02:45:38.288Z,98.75
2022-12-03T02:48:38.401Z,99.02
2022-12-03T02:51:10.269Z,99.07
2022-12-03T02:53:47.413Z,99.62
2022-12-03T02:56:18.192Z,99.41
2022-12-03T02:58:48.393Z,99.31
2022-12-03T03:01:15.734Z,99.52
2022-12-03T03:03:45.438Z,99.92
2022-12-03T03:06:12.726Z,99.64
2022-12-03T03:08:40.299Z,99.42
2022-12-03T03:11:07.026Z,100.00
2022-12-03T03:13:35.895Z,99.81
2022-12-03T03:16:05.202Z,99.95
2022-12-03T03:18:33.355Z,100.00
2022-12-03T03:21:00.541Z,100.00
2022-12-03T03:23:27.224Z,100.00
2022-12-03T03:26:00.957Z,99.96
2022-12-03T03:28:29.399Z,100.00
2022-12-03T03:30:57.560Z,100.00
2022-12-03T03:33:24.932Z,99.87
2022-12-03T03:35:51.908Z,100.00
2022-12-03T03:38:20.416Z,100.00
2022-12-03T03:40:49.358Z,100.00
2022-12-03T03:43:16.283Z,99.99
2022-12-03T03:45:44.229Z,100.00
2022-12-03T03:48:12.112Z,100.00
2022-12-03T03:50:39.011Z,99.91
2022-12-03T03:53:06.034Z,100.00
2022-12-03T03:55:33.691Z,100.00
2022-12-03T03:58:00.295Z,100.00
2022-12-03T04:00:28.099Z,100.00
2022-12-03T04:02:54.734Z,99.97
2022-12-03T04:05:23.976Z,99.91
2022-12-03T04:07:51.083Z,100.00
2022-12-03T04:10:36.304Z,100.00
2022-12-03T04:13:03.227Z,100.00
2022-12-03T04:15:30.114Z,99.81
2022-12-03T04:18:15.542Z,99.87
2022-12-03T04:20:42.641Z,100.00
2022-12-03T04:23:09.491Z,100.00
2022-12-03T04:25:54.834Z,100.00
2022-12-03T04:28:39.787Z,100.00
2022-12-03T04:31:25.258Z,100.00
2022-12-03T04:34:11.031Z,100.00
2022-12-03T04:36:37.853Z,100.00
2022-12-03T04:39:04.646Z,100.00
2022-12-03T04:41:31.296Z,100.00
2022-12-03T04:44:16.168Z,100.00
2022-12-03T04:46:42.794Z,100.00
2022-12-03T04:49:09.449Z,100.00
2022-12-03T04:51:36.087Z,100.00
2022-12-03T04:54:02.669Z,100.00
2022-12-03T04:56:29.860Z,100.00
2022-12-03T04:58:56.411Z,100.00
2022-12-03T05:01:23.154Z,100.00
2022-12-03T05:03:49.766Z,100.00
2022-12-03T05:06:16.351Z,100.00
2022-12-03T05:08:42.921Z,100.00
2022-12-03T05:11:09.587Z,100.00
2022-12-03T05:13:36.362Z,100.00
2022-12-03T05:16:02.973Z,100.00
2022-12-03T05:18:30.126Z,100.00
2022-12-03T05:20:56.775Z,100.00
2022-12-03T05:23:23.877Z,100.00
2022-12-03T05:25:50.592Z,100.00
2022-12-03T05:28:17.309Z,100.00
2022-12-03T05:30:44.063Z,100.00
2022-12-03T05:33:10.701Z,100.00
2022-12-03T05:35:37.307Z,100.00
2022-12-03T05:38:04.367Z,100.00
2022-12-03T05:40:31.069Z,100.00
2022-12-03T05:42:57.847Z,100.00
2022-12-03T05:45:29.566Z,100.00
2022-12-03T05:47:57.304Z,100.00
2022-12-03T05:50:26.500Z,100.00
2022-12-03T05:52:54.690Z,100.00
2022-12-03T05:55:21.435Z,100.00
2022-12-03T05:57:48.171Z,100.00
2022-12-03T06:00:20.923Z,100.00
2022-12-03T06:02:47.839Z,100.00
2022-12-03T06:05:15.556Z,100.00
2022-12-03T06:07:42.715Z,100.00
2022-12-03T06:10:11.963Z,100.00
2022-12-03T06:12:38.607Z,100.00
2022-12-03T06:15:06.125Z,100.00
2022-12-03T06:17:33.361Z,100.00
2022-12-03T06:19:59.985Z,100.00
2022-12-03T06:22:27.081Z,100.00
2022-12-03T06:24:54.532Z,100.00
2022-12-03T06:27:21.293Z,100.00
2022-12-03T06:29:47.857Z,100.00
2022-12-03T06:32:14.817Z,100.00
2022-12-03T06:34:41.562Z,100.00
2022-12-03T06:37:08.177Z,100.00
2022-12-03T06:39:34.818Z,100.00
2022-12-03T06:42:01.661Z,100.00
2022-12-03T06:44:28.359Z,100.00
2022-12-03T06:46:55.141Z,100.00
2022-12-03T06:49:21.827Z,100.00
2022-12-03T06:51:48.500Z,100.00
2022-12-03T06:54:15.123Z,100.00
2022-12-03T06:56:45.081Z,100.00
2022-12-03T06:59:12.234Z,100.00
2022-12-03T07:01:38.870Z,100.00
2022-12-03T07:04:05.685Z,100.00
2022-12-03T07:06:32.312Z,100.00
2022-12-03T07:08:58.904Z,100.00
2022-12-03T07:11:31.418Z,100.00
2022-12-03T07:14:04.640Z,100.00
2022-12-03T07:16:33.135Z,100.00
2022-12-03T07:18:59.946Z,100.00
2022-12-03T07:21:26.614Z,100.00
2022-12-03T07:23:53.228Z,100.00
2022-12-03T07:26:19.882Z,100.00
2022-12-03T07:28:48.189Z,100.00
2022-12-03T07:31:15.281Z,100.00
2022-12-03T07:33:42.399Z,100.00
2022-12-03T07:36:09.906Z,100.00
2022-12-03T07:38:36.677Z,100.00
2022-12-03T07:41:03.683Z,100.00
2022-12-03T07:43:30.787Z,100.00
2022-12-03T07:45:57.358Z,100.00
2022-12-03T07:48:23.941Z,100.00
2022-12-03T07:50:50.645Z,100.00
2022-12-03T07:53:17.324Z,100.00
2022-12-03T07:55:43.933Z,100.00
2022-12-03T07:58:11.716Z,100.00
2022-12-03T08:00:38.361Z,100.00
2022-12-03T08:03:04.976Z,100.00
2022-12-03T08:05:31.615Z,100.00
2022-12-03T08:07:58.295Z,100.00
2022-12-03T08:10:26.664Z,100.00
2022-12-03T08:13:00.115Z,100.00
2022-12-03T08:15:33.668Z,100.00
2022-12-03T08:18:12.873Z,100.00
2022-12-03T08:20:41.442Z,100.00
2022-12-03T08:23:13.957Z,100.00
2022-12-03T08:25:55.571Z,100.00
2022-12-03T08:28:25.715Z,100.00
2022-12-03T08:31:20.628Z,100.00
2022-12-03T08:33:49.630Z,100.00
2022-12-03T08:36:19.462Z,100.00
2022-12-03T08:38:51.036Z,99.72
2022-12-03T08:41:39.487Z,99.76
2022-12-03T08:44:13.982Z,99.67
2022-12-03T08:46:40.614Z,99.69
2022-12-03T08:49:08.754Z,100.00
2022-12-03T08:51:35.388Z,99.51
2022-12-03T08:54:12.744Z,99.62
2022-12-03T08:56:39.363Z,100.00
2022-12-03T08:59:26.006Z,99.69
2022-12-03T09:01:56.152Z,100.00
2022-12-03T09:04:37.610Z,99.50
2022-12-03T09:07:05.677Z,98.72
2022-12-03T09:09:32.335Z,99.29
2022-12-03T09:12:02.043Z,99.06
2022-12-03T09:14:28.964Z,99.34
2022-12-03T09:16:56.664Z,99.18
2022-12-03T09:19:24.830Z,100.00
2022-12-03T09:21:52.177Z,99.00
2022-12-03T09:24:18.824Z,99.42
2022-12-03T09:26:45.427Z,99.60
2022-12-03T09:29:12.934Z,99.37
2022-12-03T09:31:40.457Z,98.64
2022-12-03T09:34:07.764Z,99.14
2022-12-03T09:36:34.381Z,99.47
2022-12-03T09:39:01.030Z,99.09
2022-12-03T09:41:27.837Z,98.75
2022-12-03T09:44:17.229Z,98.70
2022-12-03T09:46:42.924Z,98.47
2022-12-03T09:49:16.015Z,97.98
2022-12-03T09:51:44.679Z,97.96
2022-12-03T09:54:25.866Z,98.10
2022-12-03T09:56:54.719Z,97.60
2022-12-03T09:59:24.221Z,97.93
2022-12-03T10:01:52.953Z,97.57
2022-12-03T10:04:20.015Z,97.35
2022-12-03T10:06:47.361Z,96.90
2022-12-03T10:09:20.820Z,95.94
2022-12-03T10:11:48.227Z,95.84
2022-12-03T10:14:17.186Z,95.81
2022-12-03T10:16:43.937Z,95.57
2022-12-03T10:19:20.387Z,94.97
2022-12-03T10:21:47.210Z,94.79
2022-12-03T10:24:16.811Z,95.14
2022-12-03T10:26:45.393Z,95.15
2022-12-03T10:29:21.062Z,95.29
2022-12-03T10:32:01.797Z,95.71
2022-12-03T10:34:31.850Z,95.42
2022-12-03T10:37:19.885Z,94.48
2022-12-03T10:40:09.188Z,94.63
2022-12-03T10:42:38.929Z,94.47
2022-12-03T10:45:13.318Z,94.04
2022-12-03T10:47:40.166Z,93.96
2022-12-03T10:50:18.858Z,93.31
2022-12-03T10:52:46.637Z,93.73
2022-12-03T10:55:14.178Z,93.63
2022-12-03T10:57:45.295Z,93.42
2022-12-03T11:00:19.332Z,93.83
2022-12-03T11:02:54.660Z,92.18
2022-12-03T11:05:27.393Z,93.65
2022-12-03T11:07:54.477Z,93.08
2022-12-03T11:10:21.574Z,92.50
2022-12-03T11:13:25.883Z,92.94
2022-12-03T11:15:53.301Z,93.07
2022-12-03T11:18:38.151Z,92.83
2022-12-03T11:21:15.251Z,92.86
2022-12-03T11:23:44.714Z,92.47
2022-12-03T11:26:17.097Z,92.95
2022-12-03T11:28:56.114Z,93.00
2022-12-03T11:31:43.476Z,93.36
2022-12-03T11:34:22.461Z,92.78
2022-12-03T11:37:11.084Z,92.33
2022-12-03T11:39:50.559Z,93.04
2022-12-03T11:42:25.977Z,92.72
2022-12-03T11:45:04.686Z,93.25
2022-12-03T11:47:41.406Z,93.13
2022-12-03T11:50:21.019Z,92.81
2022-12-03T11:52:54.516Z,92.95
2022-12-03T11:55:34.748Z,93.01
2022-12-03T11:58:15.061Z,92.64
2022-12-03T12:01:03.314Z,92.87
2022-12-03T12:03:33.110Z,92.63
2022-12-03T12:06:02.320Z,92.32
2022-12-03T12:08:29.535Z,91.63
2022-12-03T12:10:56.216Z,91.81
2022-12-03T12:13:28.717Z,91.49
2022-12-03T12:15:59.017Z,92.17
2022-12-03T12:18:40.635Z,91.88
2022-12-03T12:21:47.808Z,91.89
2022-12-03T12:24:48.236Z,91.73
2022-12-03T12:27:16.136Z,91.20
2022-12-03T12:29:47.218Z,91.35
2022-12-03T12:32:18.342Z,91.59
2022-12-03T12:34:49.791Z,91.61
2022-12-03T12:37:32.101Z,91.93
2022-12-03T12:40:00.749Z,91.23
2022-12-03T12:42:36.467Z,91.63
2022-12-03T12:45:15.612Z,91.10
2022-12-03T12:48:07.166Z,91.60
2022-12-03T12:50:34.446Z,91.38
2022-12-03T12:53:33.137Z,91.38
2022-12-03T12:56:27.063Z,91.57
2022-12-03T12:58:54.807Z,91.95
2022-12-03T13:01:25.889Z,91.05
2022-12-03T13:03:53.303Z,90.62
2022-12-03T13:06:26.089Z,90.41
2022-12-03T13:08:53.029Z,90.29
2022-12-03T13:11:42.234Z,90.39
2022-12-03T13:14:19.186Z,90.35
2022-12-03T13:16:47.746Z,90.17
2022-12-03T13:19:24.019Z,90.38
2022-12-03T13:21:53.789Z,90.18
2022-12-03T13:24:31.357Z,89.10
2022-12-03T13:27:00.419Z,89.39
2022-12-03T13:29:27.947Z,89.49
2022-12-03T13:32:09.552Z,90.15
2022-12-03T13:34:36.269Z,89.73
2022-12-03T13:37:13.617Z,90.46
2022-12-03T13:39:46.646Z,89.40
2022-12-03T13:42:41.695Z,90.00
2022-12-03T13:45:14.745Z,89.87
2022-12-03T13:47:47.817Z,89.95
2022-12-03T13:50:40.302Z,89.35
2022-12-03T13:53:21.343Z,90.35
2022-12-03T13:55:51.051Z,89.85
2022-12-03T13:58:17.922Z,90.10
2022-12-03T14:00:44.647Z,90.25
2022-12-03T14:03:11.409Z,90.25
2022-12-03T14:05:37.993Z,90.73
2022-12-03T14:08:06.059Z,90.15
2022-12-03T14:10:33.240Z,90.09
2022-12-03T14:12:59.900Z,89.83
2022-12-03T14:15:26.701Z,90.38
2022-12-03T14:17:53.803Z,90.58
2022-12-03T14:20:20.926Z,91.02
2022-12-03T14:22:47.621Z,90.95
2022-12-03T14:25:15.037Z,91.09
2022-12-03T14:27:41.768Z,91.25
2022-12-03T14:30:09.241Z,91.35
2022-12-03T14:32:35.905Z,90.83
2022-12-03T14:35:08.185Z,91.24
2022-12-03T14:37:37.051Z,91.64
2022-12-03T14:40:07.047Z,91.76
2022-12-03T14:42:33.707Z,92.08
2022-12-03T14:45:00.479Z,90.65
2022-12-03T14:47:27.163Z,90.90
2022-12-03T14:49:53.996Z,91.25
2022-12-03T14:52:20.902Z,91.84
2022-12-03T14:54:47.521Z,91.59
2022-12-03T14:57:15.382Z,92.08
2022-12-03T14:59:43.381Z,91.83
2022-12-03T15:02:10.926Z,91.84
2022-12-03T15:04:37.972Z,91.95
2022-12-03T15:07:06.454Z,91.56
2022-12-03T15:09:33.118Z,92.00
2022-12-03T15:12:00.113Z,92.29
2022-12-03T15:14:27.000Z,91.93
2022-12-03T15:16:53.705Z,92.65
2022-12-03T15:19:20.339Z,92.78
2022-12-03T15:21:46.925Z,93.47
2022-12-03T15:24:13.583Z,93.32
2022-12-03T15:26:40.185Z,93.04
2022-12-03T15:29:06.776Z,93.55
2022-12-03T15:31:33.531Z,93.95
2022-12-03T15:34:00.184Z,93.86
2022-12-03T15:36:26.842Z,93.71
2022-12-03T15:38:53.605Z,93.75
2022-12-03T15:41:38.149Z,93.45
2022-12-03T15:44:05.333Z,94.15
2022-12-03T15:46:32.049Z,93.71
2022-12-03T15:48:59.587Z,93.76
2022-12-03T15:51:26.178Z,93.35
2022-12-03T15:53:53.091Z,93.68
2022-12-03T15:56:19.760Z,93.13
2022-12-03T15:58:46.413Z,92.55
2022-12-03T16:01:13.698Z,92.95
2022-12-03T16:03:40.751Z,93.52
2022-12-03T16:06:07.792Z,93.74
2022-12-03T16:08:34.519Z,94.00
2022-12-03T16:11:01.098Z,94.09
2022-12-03T16:13:27.729Z,93.16
2022-12-03T16:15:54.447Z,93.69
2022-12-03T16:18:21.145Z,93.82
2022-12-03T16:20:47.742Z,93.50
2022-12-03T16:23:14.357Z,93.88
2022-12-03T16:25:40.964Z,94.29
2022-12-03T16:28:07.590Z,94.25
2022-12-03T16:30:34.313Z,94.63
2022-12-03T16:33:00.976Z,94.71
2022-12-03T16:35:27.780Z,93.88
2022-12-03T16:37:54.392Z,94.21
2022-12-03T16:40:20.974Z,94.45
2022-12-03T16:42:47.572Z,94.45
2022-12-03T16:45:33.407Z,94.25
2022-12-03T16:48:01.762Z,94.47
2022-12-03T16:50:30.164Z,94.53
2022-12-03T16:52:57.712Z,94.84
2022-12-03T16:55:24.493Z,94.39
2022-12-03T16:57:51.103Z,94.37
2022-12-03T17:00:17.960Z,94.65
2022-12-03T17:02:44.675Z,94.22
2022-12-03T17:05:11.381Z,94.65
2022-12-03T17:07:38.091Z,94.51
2022-12-03T17:10:05.815Z,94.79
2022-12-03T17:13:00.791Z,94.64
2022-12-03T17:15:19.106Z,95.25
2022-12-03T17:17:45.708Z,95.04
2022-12-03T17:20:14.602Z,95.49
2022-12-03T17:22:41.772Z,95.42
2022-12-03T17:25:09.409Z,95.64
2022-12-03T17:27:40.810Z,95.47
2022-12-03T17:30:13.009Z,95.68
2022-12-03T17:32:39.792Z,96.09
2022-12-03T17:35:07.197Z,96.14
2022-12-03T17:37:34.002Z,95.99
2022-12-03T17:40:00.809Z,96.07
2022-12-03T17:42:27.574Z,96.61
2022-12-03T17:44:54.169Z,96.39
2022-12-03T17:47:24.279Z,96.06
2022-12-03T17:49:50.904Z,96.28
2022-12-03T17:52:17.542Z,96.29
2022-12-03T17:55:09.183Z,97.06
2022-12-03T17:57:31.222Z,96.81
2022-12-03T17:59:57.829Z,96.95
2022-12-03T18:02:24.449Z,97.47
2022-12-03T18:04:51.092Z,97.83
2022-12-03T18:07:17.713Z,97.81
2022-12-03T18:09:44.324Z,97.46
2022-12-03T18:12:10.954Z,97.75
2022-12-03T18:14:37.607Z,97.86
2022-12-03T18:17:05.163Z,97.55
2022-12-03T18:19:31.813Z,97.83
2022-12-03T18:21:58.495Z,97.93
2022-12-03T18:24:25.415Z,98.09
2022-12-03T18:26:52.040Z,98.15
2022-12-03T18:29:18.714Z,97.83
2022-12-03T18:31:45.465Z,97.92
2022-12-03T18:34:12.170Z,98.20
2022-12-03T18:36:39.710Z,97.21
2022-12-03T18:39:09.203Z,97.88
2022-12-03T18:41:36.412Z,97.83
2022-12-03T18:44:06.649Z,98.01
2022-12-03T18:46:53.138Z,97.76
2022-12-03T18:49:20.405Z,97.73
2022-12-03T18:51:48.298Z,98.16
2022-12-03T18:54:15.233Z,97.59
2022-12-03T18:56:41.909Z,97.82
2022-12-03T18:59:09.288Z,98.19
2022-12-03T19:01:36.447Z,98.20
2022-12-03T19:04:03.638Z,97.53
2022-12-03T19:06:30.923Z,98.15
2022-12-03T19:08:57.952Z,98.19
2022-12-03T19:11:24.762Z,97.73
2022-12-03T19:13:52.056Z,98.11
2022-12-03T19:16:19.020Z,98.09
2022-12-03T19:18:45.844Z,98.28
2022-12-03T19:21:15.461Z,98.09
2022-12-03T19:24:04.200Z,98.30
2022-12-03T19:26:30.902Z,98.77
2022-12-03T19:28:57.563Z,98.94
2022-12-03T19:31:24.405Z,99.07
2022-12-03T19:33:51.831Z,98.66
2022-12-03T19:36:27.403Z,98.47
2022-12-03T19:38:58.347Z,98.77
2022-12-03T19:41:28.095Z,98.80
2022-12-03T19:43:56.401Z,98.91
2022-12-03T19:46:26.208Z,99.70
2022-12-03T19:48:53.815Z,99.89
2022-12-03T19:51:34.218Z,99.44
2022-12-03T19:54:03.052Z,99.51
2022-12-03T19:56:30.402Z,99.67
2022-12-03T19:58:57.917Z,99.42
2022-12-03T20:01:30.724Z,99.99
2022-12-03T20:03:59.499Z,99.48
2022-12-03T20:06:29.791Z,99.69
2022-12-03T20:09:01.938Z,99.66
2022-12-03T20:11:31.264Z,99.67
2022-12-03T20:14:00.527Z,100.00
2022-12-03T20:16:28.177Z,100.00
2022-12-03T20:19:00.753Z,99.57
2022-12-03T20:21:30.312Z,100.00
2022-12-03T20:23:57.306Z,100.00
2022-12-03T20:26:24.486Z,100.00
2022-12-03T20:28:54.188Z,100.00
2022-12-03T20:31:23.048Z,100.00
2022-12-03T20:33:52.575Z,100.00
2022-12-03T20:36:21.036Z,100.00
2022-12-03T20:38:47.704Z,100.00
2022-12-03T20:41:21.384Z,100.00
2022-12-03T20:43:48.485Z,100.00
2022-12-03T20:46:18.832Z,100.00
2022-12-03T20:48:45.969Z,100.00
2022-12-03T20:51:16.329Z,100.00
2022-12-03T20:53:44.714Z,100.00
2022-12-03T20:56:20.557Z,100.00
2022-12-03T20:58:48.951Z,100.00
2022-12-03T21:01:19.763Z,100.00
2022-12-03T21:03:47.814Z,100.00
2022-12-03T21:06:15.497Z,100.00
2022-12-03T21:08:43.420Z,100.00
2022-12-03T21:11:11.507Z,100.00
2022-12-03T21:13:41.221Z,100.00
2022-12-03T21:16:09.872Z,100.00
2022-12-03T21:18:36.647Z,100.00
2022-12-03T21:21:03.867Z,100.00
2022-12-03T21:23:32.515Z,100.00
2022-12-03T21:26:03.731Z,100.00
2022-12-03T21:28:31.100Z,100.00
2022-12-03T21:31:06.847Z,100.00
2022-12-03T21:33:34.805Z,100.00
2022-12-03T21:36:01.931Z,100.00
2022-12-03T21:38:29.598Z,100.00
2022-12-03T21:40:56.620Z,100.00
2022-12-03T21:43:23.844Z,100.00
2022-12-03T21:45:51.034Z,100.00
2022-12-03T21:48:18.222Z,100.00
2022-12-03T21:50:45.865Z,100.00
2022-12-03T21:53:13.005Z,100.00
2022-12-03T21:55:40.844Z,100.00
2022-12-03T21:58:09.117Z,100.00
2022-12-03T22:00:36.281Z,100.00
2022-12-03T22:03:03.040Z,100.00
2022-12-03T22:05:29.700Z,100.00
2022-12-03T22:07:56.365Z,100.00
2022-12-03T22:10:23.081Z,100.00
2022-12-03T22:12:49.719Z,100.00
2022-12-03T22:15:19.160Z,100.00
2022-12-03T22:17:46.768Z,100.00
2022-12-03T22:20:14.158Z,100.00
2022-12-03T22:22:40.880Z,100.00
2022-12-03T22:25:08.107Z,100.00
2022-12-03T22:27:34.791Z,100.00
2022-12-03T22:30:01.993Z,100.00
2022-12-03T22:32:28.649Z,100.00
2022-12-03T22:34:55.275Z,100.00
2022-12-03T22:37:21.892Z,100.00
2022-12-03T22:39:48.540Z,100.00
2022-12-03T22:42:15.179Z,100.00
2022-12-03T22:44:41.801Z,100.00
2022-12-03T22:47:08.516Z,100.00
2022-12-03T22:49:35.097Z,100.00
2022-12-03T22:52:01.763Z,100.00
2022-12-03T22:54:28.482Z,100.00
2022-12-03T22:56:55.084Z,100.00
2022-12-03T22:59:21.676Z,100.00
2022-12-03T23:01:48.500Z,100.00
2022-12-03T23:04:15.194Z,100.00
2022-12-03T23:06:43.493Z,100.00
2022-12-03T23:09:10.276Z,100.00
2022-12-03T23:11:37.996Z,100.00
2022-12-03T23:14:05.572Z,100.00
2022-12-03T23:16:33.733Z,100.00
2022-12-03T23:19:01.772Z,100.00
2022-12-03T23:21:30.751Z,100.00
2022-12-03T23:24:01.849Z,100.00
2022-12-03T23:26:29.624Z,100.00
2022-12-03T23:28:56.586Z,100.00
2022-12-03T23:31:28.542Z,100.00
2022-12-03T23:33:56.891Z,100.00
2022-12-03T23:36:24.689Z,100.00
2022-12-03T23:38:51.422Z,100.00
2022-12-03T23:41:20.131Z,100.00
2022-12-03T23:43:46.864Z,100.00
2022-12-03T23:46:19.214Z,100.00
2022-12-03T23:48:46.272Z,100.00
2022-12-03T23:51:16.379Z,100.00
2022-12-03T23:53:43.540Z,100.00
2022-12-03T23:56:13.363Z,100.00
2022-12-03T23:58:40.193Z,100.00
